sensor_id;sensor_type;location;lat;lon;timestamp;P1;durP1;ratioP1;P2;durP2;ratioP2
9228;SDS011;4649;42.644;23.284;2023-03-29T00:01:03;3.23;;;2.93;;
9228;SDS011;4649;42.644;23.284;2023-03-29T00:03:38;2.60;;;2.50;;
9228;SDS011;4649;42.644;23.284;2023-03-29T00:06:42;2.90;;;2.73;;
9228;SDS011;4649;42.644;23.284;2023-03-29T00:09:13;2.77;;;2.67;;
9228;SDS011;4649;42.644;23.284;2023-03-29T00:11:49;2.60;;;2.50;;
9228;SDS011;4649;42.644;23.284;2023-03-29T00:14:28;2.70;;;2.60;;
9228;SDS011;4649;42.644;23.284;2023-03-29T00:17:02;2.80;;;2.70;;
9228;SDS011;4649;42.644;23.284;2023-03-29T00:19:35;4.13;;;2.90;;
9228;SDS011;4649;42.644;23.284;2023-03-29T00:22:13;3.23;;;2.60;;
9228;SDS011;4649;42.644;23.284;2023-03-29T00:24:54;3.60;;;2.47;;
9228;SDS011;4649;42.644;23.284;2023-03-29T00:27:29;2.50;;;2.40;;
9228;SDS011;4649;42.644;23.284;2023-03-29T00:30:05;4.20;;;3.17;;
9228;SDS011;4649;42.644;23.284;2023-03-29T00:32:39;3.50;;;2.60;;
9228;SDS011;4649;42.644;23.284;2023-03-29T00:35:19;3.53;;;2.90;;
9228;SDS011;4649;42.644;23.284;2023-03-29T00:40:40;3.03;;;2.67;;
9228;SDS011;4649;42.644;23.284;2023-03-29T00:43:48;3.40;;;2.50;;
9228;SDS011;4649;42.644;23.284;2023-03-29T00:47:03;4.67;;;3.23;;
9228;SDS011;4649;42.644;23.284;2023-03-29T00:49:34;3.10;;;2.90;;
9228;SDS011;4649;42.644;23.284;2023-03-29T00:52:09;2.83;;;2.73;;
9228;SDS011;4649;42.644;23.284;2023-03-29T00:54:55;3.33;;;3.13;;
9228;SDS011;4649;42.644;23.284;2023-03-29T00:57:34;2.70;;;2.50;;
9228;SDS011;4649;42.644;23.284;2023-03-29T01:00:14;6.20;;;3.03;;
9228;SDS011;4649;42.644;23.284;2023-03-29T01:03:11;3.33;;;2.70;;
9228;SDS011;4649;42.644;23.284;2023-03-29T01:05:55;3.27;;;2.73;;
9228;SDS011;4649;42.644;23.284;2023-03-29T01:08:54;5.23;;;3.07;;
9228;SDS011;4649;42.644;23.284;2023-03-29T01:11:39;2.63;;;2.53;;
9228;SDS011;4649;42.644;23.284;2023-03-29T13:39:46;1.23;;;1.00;;
9228;SDS011;4649;42.644;23.284;2023-03-29T13:42:19;2.20;;;1.10;;
9228;SDS011;4649;42.644;23.284;2023-03-29T13:44:52;1.20;;;1.17;;
9228;SDS011;4649;42.644;23.284;2023-03-29T13:47:42;1.17;;;1.17;;
9228;SDS011;4649;42.644;23.284;2023-03-29T13:50:16;1.37;;;1.07;;
9228;SDS011;4649;42.644;23.284;2023-03-29T13:53:02;7.37;;;1.37;;
9228;SDS011;4649;42.644;23.284;2023-03-29T13:55:39;3.27;;;0.80;;
9228;SDS011;4649;42.644;23.284;2023-03-29T13:58:14;1.37;;;1.27;;
9228;SDS011;4649;42.644;23.284;2023-03-29T14:01:09;1.10;;;1.10;;
9228;SDS011;4649;42.644;23.284;2023-03-29T14:03:45;2.53;;;1.03;;
9228;SDS011;4649;42.644;23.284;2023-03-29T14:06:15;3.33;;;1.13;;
9228;SDS011;4649;42.644;23.284;2023-03-29T14:08:50;1.13;;;1.03;;
9228;SDS011;4649;42.644;23.284;2023-03-29T18:32:47;3.40;;;3.07;;
9228;SDS011;4649;42.644;23.284;2023-03-29T18:37:51;3.40;;;2.25;;
9228;SDS011;4649;42.644;23.284;2023-03-29T18:40:29;2.30;;;2.17;;
9228;SDS011;4649;42.644;23.284;2023-03-29T18:43:11;1.80;;;1.70;;
9228;SDS011;4649;42.644;23.284;2023-03-29T18:45:45;1.53;;;1.43;;
9228;SDS011;4649;42.644;23.284;2023-03-29T18:48:44;4.93;;;1.80;;
9228;SDS011;4649;42.644;23.284;2023-03-29T18:51:54;2.37;;;1.93;;
9228;SDS011;4649;42.644;23.284;2023-03-29T18:54:50;3.53;;;1.80;;
9228;SDS011;4649;42.644;23.284;2023-03-29T18:57:40;1.67;;;1.57;;
9228;SDS011;4649;42.644;23.284;2023-03-29T19:08:47;1.87;;;1.50;;
9228;SDS011;4649;42.644;23.284;2023-03-29T19:11:43;2.10;;;2.00;;
9228;SDS011;4649;42.644;23.284;2023-03-29T19:14:30;1.00;;;1.00;;
9228;SDS011;4649;42.644;23.284;2023-03-29T19:17:03;1.40;;;1.30;;
9228;SDS011;4649;42.644;23.284;2023-03-29T19:22:55;1.30;;;1.27;;
9228;SDS011;4649;42.644;23.284;2023-03-29T19:29:02;1.90;;;1.80;;
9228;SDS011;4649;42.644;23.284;2023-03-29T19:31:46;1.63;;;1.50;;
9228;SDS011;4649;42.644;23.284;2023-03-29T19:36:59;1.70;;;1.60;;
9228;SDS011;4649;42.644;23.284;2023-03-29T19:39:35;1.83;;;1.70;;
9228;SDS011;4649;42.644;23.284;2023-03-29T19:42:06;1.60;;;1.50;;
9228;SDS011;4649;42.644;23.284;2023-03-29T19:44:46;1.97;;;1.87;;
9228;SDS011;4649;42.644;23.284;2023-03-29T19:47:15;4.00;;;1.87;;
9228;SDS011;4649;42.644;23.284;2023-03-29T19:50:22;2.27;;;1.67;;
9228;SDS011;4649;42.644;23.284;2023-03-29T19:53:04;2.17;;;1.83;;
9228;SDS011;4649;42.644;23.284;2023-03-29T20:01:00;1.77;;;1.67;;
9228;SDS011;4649;42.644;23.284;2023-03-29T20:03:42;1.70;;;1.60;;
9228;SDS011;4649;42.644;23.284;2023-03-29T20:06:13;1.53;;;1.43;;
9228;SDS011;4649;42.644;23.284;2023-03-29T20:09:02;1.47;;;1.40;;
9228;SDS011;4649;42.644;23.284;2023-03-29T20:14:45;1.63;;;1.53;;
9228;SDS011;4649;42.644;23.284;2023-03-29T20:20:37;1.83;;;1.73;;
9228;SDS011;4649;42.644;23.284;2023-03-29T20:23:15;1.77;;;1.40;;
9228;SDS011;4649;42.644;23.284;2023-03-29T20:25:55;2.50;;;1.53;;
9228;SDS011;4649;42.644;23.284;2023-03-29T20:28:40;1.97;;;1.83;;
9228;SDS011;4649;42.644;23.284;2023-03-29T20:31:19;1.63;;;1.53;;
9228;SDS011;4649;42.644;23.284;2023-03-29T20:34:13;1.40;;;1.20;;
9228;SDS011;4649;42.644;23.284;2023-03-29T20:37:13;1.77;;;1.53;;
9228;SDS011;4649;42.644;23.284;2023-03-29T20:42:36;2.00;;;1.60;;
9228;SDS011;4649;42.644;23.284;2023-03-29T20:45:18;2.93;;;1.50;;
9228;SDS011;4649;42.644;23.284;2023-03-29T20:48:02;3.03;;;1.57;;
9228;SDS011;4649;42.644;23.284;2023-03-29T20:50:40;1.73;;;1.63;;
9228;SDS011;4649;42.644;23.284;2023-03-29T20:53:36;4.30;;;1.30;;
9228;SDS011;4649;42.644;23.284;2023-03-29T20:56:24;5.83;;;1.43;;
9228;SDS011;4649;42.644;23.284;2023-03-29T20:59:09;2.20;;;2.00;;
9228;SDS011;4649;42.644;23.284;2023-03-29T21:01:47;1.47;;;1.37;;
9228;SDS011;4649;42.644;23.284;2023-03-29T21:04:19;1.33;;;1.23;;
9228;SDS011;4649;42.644;23.284;2023-03-29T21:07:06;1.47;;;1.37;;
9228;SDS011;4649;42.644;23.284;2023-03-29T21:18:50;1.50;;;1.40;;
9228;SDS011;4649;42.644;23.284;2023-03-29T21:21:46;1.03;;;1.03;;
9228;SDS011;4649;42.644;23.284;2023-03-29T21:24:31;1.67;;;1.57;;
9228;SDS011;4649;42.644;23.284;2023-03-29T21:27:26;1.50;;;1.40;;
9228;SDS011;4649;42.644;23.284;2023-03-29T21:30:06;2.73;;;1.37;;
9228;SDS011;4649;42.644;23.284;2023-03-29T21:33:03;1.53;;;1.43;;
9228;SDS011;4649;42.644;23.284;2023-03-29T21:38:25;1.50;;;1.40;;
9228;SDS011;4649;42.644;23.284;2023-03-29T21:41:01;1.93;;;1.83;;
9228;SDS011;4649;42.644;23.284;2023-03-29T21:43:49;1.70;;;1.60;;
9228;SDS011;4649;42.644;23.284;2023-03-29T21:46:30;1.53;;;1.33;;
9228;SDS011;4649;42.644;23.284;2023-03-29T21:52:11;1.57;;;1.30;;
9228;SDS011;4649;42.644;23.284;2023-03-29T21:54:46;1.97;;;1.33;;
9228;SDS011;4649;42.644;23.284;2023-03-29T21:57:19;1.60;;;1.50;;
9228;SDS011;4649;42.644;23.284;2023-03-29T22:00:02;1.67;;;1.57;;
9228;SDS011;4649;42.644;23.284;2023-03-29T22:06:10;1.70;;;1.60;;
9228;SDS011;4649;42.644;23.284;2023-03-29T22:09:11;2.57;;;1.60;;
9228;SDS011;4649;42.644;23.284;2023-03-29T22:11:59;1.53;;;1.40;;
9228;SDS011;4649;42.644;23.284;2023-03-29T22:14:56;1.73;;;1.67;;
9228;SDS011;4649;42.644;23.284;2023-03-29T22:17:32;2.47;;;1.40;;
9228;SDS011;4649;42.644;23.284;2023-03-29T22:23:16;1.50;;;1.37;;
9228;SDS011;4649;42.644;23.284;2023-03-29T22:26:08;1.43;;;1.33;;
9228;SDS011;4649;42.644;23.284;2023-03-29T22:28:50;1.57;;;1.47;;
9228;SDS011;4649;42.644;23.284;2023-03-29T22:42:18;1.90;;;1.80;;
9228;SDS011;4649;42.644;23.284;2023-03-29T22:45:10;1.57;;;1.50;;
9228;SDS011;4649;42.644;23.284;2023-03-29T22:47:53;1.77;;;1.67;;
9228;SDS011;4649;42.644;23.284;2023-03-29T22:50:40;1.93;;;1.83;;
9228;SDS011;4649;42.644;23.284;2023-03-29T22:53:14;2.30;;;1.70;;
9228;SDS011;4649;42.644;23.284;2023-03-29T22:55:43;1.77;;;1.67;;
9228;SDS011;4649;42.644;23.284;2023-03-29T22:58:23;1.77;;;1.67;;
9228;SDS011;4649;42.644;23.284;2023-03-29T23:01:08;1.67;;;1.57;;
9228;SDS011;4649;42.644;23.284;2023-03-29T23:03:51;1.87;;;1.77;;
9228;SDS011;4649;42.644;23.284;2023-03-29T23:06:33;1.93;;;1.80;;
9228;SDS011;4649;42.644;23.284;2023-03-29T23:09:06;1.40;;;1.37;;
9228;SDS011;4649;42.644;23.284;2023-03-29T23:11:52;6.40;;;1.43;;
9228;SDS011;4649;42.644;23.284;2023-03-29T23:17:55;1.60;;;1.50;;
9228;SDS011;4649;42.644;23.284;2023-03-29T23:20:31;1.87;;;1.77;;
9228;SDS011;4649;42.644;23.284;2023-03-29T23:23:14;3.43;;;1.80;;
9228;SDS011;4649;42.644;23.284;2023-03-29T23:25:57;2.27;;;2.13;;
9228;SDS011;4649;42.644;23.284;2023-03-29T23:32:12;1.40;;;1.30;;
9228;SDS011;4649;42.644;23.284;2023-03-29T23:34:45;5.57;;;1.40;;
9228;SDS011;4649;42.644;23.284;2023-03-29T23:37:27;1.37;;;1.27;;
9228;SDS011;4649;42.644;23.284;2023-03-29T23:39:58;1.23;;;1.23;;
9228;SDS011;4649;42.644;23.284;2023-03-29T23:42:46;1.60;;;1.50;;
9228;SDS011;4649;42.644;23.284;2023-03-29T23:48:07;1.60;;;1.50;;
9228;SDS011;4649;42.644;23.284;2023-03-29T23:50:48;1.30;;;1.30;;
9228;SDS011;4649;42.644;23.284;2023-03-29T23:53:32;2.07;;;1.30;;
9228;SDS011;4649;42.644;23.284;2023-03-29T23:59:00;1.80;;;1.70;;
